createdAt,value
2018-11-02T00:01:35.989Z,14.88
2018-11-02T00:04:04.423Z,14.95
2018-11-02T00:06:33.965Z,14.71
2018-11-02T00:09:02.403Z,14.41
2018-11-02T00:11:30.696Z,14.49
2018-11-02T00:13:59.052Z,14.20
2018-11-02T00:16:27.489Z,14.54
2018-11-02T00:18:55.823Z,14.71
2018-11-02T00:21:24.189Z,14.77
2018-11-02T00:23:52.693Z,14.80
2018-11-02T00:26:20.987Z,14.73
2018-11-02T00:28:49.353Z,14.66
2018-11-02T00:31:17.684Z,14.93
2018-11-02T00:33:45.994Z,15.00
2018-11-02T00:36:14.316Z,14.89
2018-11-02T00:38:42.708Z,14.83
2018-11-02T00:41:11.059Z,15.01
2018-11-02T00:43:39.644Z,15.02
2018-11-02T00:46:08.419Z,15.01
2018-11-02T00:48:36.727Z,14.97
2018-11-02T00:51:05.357Z,14.94
2018-11-02T00:53:33.683Z,14.82
2018-11-02T00:56:02.039Z,14.26
2018-11-02T00:58:30.395Z,14.53
2018-11-02T01:00:58.765Z,14.44
2018-11-02T01:03:27.149Z,14.44
2018-11-02T01:05:55.508Z,14.54
2018-11-02T01:08:23.933Z,14.75
2018-11-02T01:10:52.270Z,14.96
2018-11-02T01:13:20.615Z,15.12
2018-11-02T01:15:49.036Z,15.03
2018-11-02T01:18:17.359Z,15.19
2018-11-02T01:20:45.736Z,15.15
2018-11-02T01:23:14.157Z,14.91
2018-11-02T01:25:42.499Z,15.07
2018-11-02T01:28:10.914Z,15.19
2018-11-02T01:30:39.266Z,14.95
2018-11-02T01:33:07.707Z,14.43
2018-11-02T01:35:36.200Z,14.08
2018-11-02T01:38:04.741Z,14.71
2018-11-02T01:40:33.134Z,14.81
2018-11-02T01:43:01.548Z,14.66
2018-11-02T01:45:29.867Z,14.73
2018-11-02T01:47:58.194Z,14.71
2018-11-02T01:50:26.570Z,14.33
2018-11-02T01:52:54.881Z,14.53
2018-11-02T01:55:23.219Z,14.11
2018-11-02T01:57:51.558Z,14.08
2018-11-02T02:00:19.932Z,14.21
2018-11-02T02:02:48.244Z,14.56
2018-11-02T02:05:16.634Z,14.59
2018-11-02T02:07:45.071Z,14.30
2018-11-02T02:10:13.468Z,14.24
2018-11-02T02:12:41.756Z,13.91
2018-11-02T02:15:10.807Z,14.23
2018-11-02T02:17:39.317Z,14.19
2018-11-02T02:20:08.399Z,14.41
2018-11-02T02:22:36.702Z,14.33
2018-11-02T02:25:05.621Z,14.08
2018-11-02T02:27:36.765Z,14.09
2018-11-02T02:30:07.361Z,13.90
2018-11-02T02:32:35.802Z,13.97
2018-11-02T02:35:04.466Z,14.15
2018-11-02T02:37:32.798Z,14.13
2018-11-02T02:40:01.086Z,13.99
2018-11-02T02:42:29.420Z,14.29
2018-11-02T02:44:57.742Z,14.21
2018-11-02T02:47:26.221Z,13.96
2018-11-02T02:49:54.518Z,14.09
2018-11-02T02:52:22.800Z,13.72
2018-11-02T02:54:51.223Z,13.82
2018-11-02T02:57:19.572Z,13.78
2018-11-02T02:59:47.917Z,13.65
2018-11-02T03:02:16.334Z,13.79
2018-11-02T03:04:44.843Z,13.80
2018-11-02T03:07:13.163Z,13.19
2018-11-02T03:09:41.560Z,13.33
2018-11-02T03:12:09.882Z,12.98
2018-11-02T03:14:38.281Z,13.17
2018-11-02T03:17:06.641Z,13.42
2018-11-02T03:19:34.986Z,13.76
2018-11-02T03:22:03.279Z,13.50
2018-11-02T03:24:31.668Z,13.39
2018-11-02T03:26:59.970Z,13.48
2018-11-02T03:29:28.269Z,13.61
2018-11-02T03:31:56.648Z,13.78
2018-11-02T03:34:24.994Z,13.93
2018-11-02T03:36:53.310Z,13.93
2018-11-02T03:39:21.698Z,13.91
2018-11-02T03:41:50.074Z,13.55
2018-11-02T03:44:18.334Z,13.44
2018-11-02T03:46:46.779Z,13.40
2018-11-02T03:49:15.204Z,13.53
2018-11-02T03:51:43.540Z,13.68
2018-11-02T03:54:11.943Z,13.87
2018-11-02T03:56:40.351Z,13.98
2018-11-02T03:59:08.650Z,13.52
2018-11-02T04:01:37.046Z,13.73
2018-11-02T04:04:05.704Z,13.55
2018-11-02T04:06:33.991Z,13.70
2018-11-02T04:09:02.471Z,13.83
2018-11-02T04:11:30.787Z,13.70
2018-11-02T04:13:59.227Z,13.82
2018-11-02T04:16:27.659Z,13.79
2018-11-02T04:18:56.022Z,13.98
2018-11-02T04:21:24.329Z,13.52
2018-11-02T04:23:52.641Z,13.37
2018-11-02T04:26:21.057Z,13.54
2018-11-02T04:28:49.371Z,13.16
2018-11-02T04:31:17.721Z,13.23
2018-11-02T04:33:46.040Z,13.83
2018-11-02T04:36:14.337Z,13.91
2018-11-02T04:38:42.633Z,13.86
2018-11-02T04:41:10.954Z,13.61
2018-11-02T04:43:39.282Z,13.80
2018-11-02T04:46:07.592Z,13.91
2018-11-02T04:48:35.873Z,13.82
2018-11-02T04:51:04.290Z,13.49
2018-11-02T04:53:32.641Z,13.43
2018-11-02T04:56:04.059Z,13.41
2018-11-02T04:58:32.422Z,13.66
2018-11-02T05:01:00.694Z,13.68
2018-11-02T05:03:29.065Z,13.57
2018-11-02T05:05:57.375Z,13.49
2018-11-02T05:08:25.730Z,13.47
2018-11-02T05:10:54.058Z,13.33
2018-11-02T05:13:22.337Z,13.35
2018-11-02T05:15:50.661Z,13.41
2018-11-02T05:18:18.948Z,13.50
2018-11-02T05:20:47.276Z,13.34
2018-11-02T05:23:15.639Z,13.58
2018-11-02T05:25:43.954Z,13.43
2018-11-02T05:28:12.277Z,13.66
2018-11-02T05:30:40.676Z,13.58
2018-11-02T05:33:09.155Z,13.55
2018-11-02T05:35:37.488Z,13.73
2018-11-02T05:38:05.792Z,13.36
2018-11-02T05:40:34.080Z,12.39
2018-11-02T05:43:02.415Z,13.03
2018-11-02T05:45:30.759Z,13.35
2018-11-02T05:47:59.294Z,13.23
2018-11-02T05:50:27.647Z,12.71
2018-11-02T05:52:55.917Z,13.12
2018-11-02T05:55:24.253Z,12.74
2018-11-02T05:57:52.607Z,12.34
2018-11-02T06:00:20.992Z,12.66
2018-11-02T06:02:49.310Z,13.05
2018-11-02T06:05:17.662Z,12.26
2018-11-02T06:07:46.134Z,12.60
2018-11-02T06:10:14.356Z,12.07
2018-11-02T06:12:42.873Z,12.61
2018-11-02T06:15:11.281Z,13.05
2018-11-02T06:17:39.629Z,12.52
2018-11-02T06:20:08.539Z,12.84
2018-11-02T06:22:36.889Z,12.12
2018-11-02T06:25:05.630Z,12.52
2018-11-02T06:27:34.066Z,12.57
2018-11-02T06:30:02.485Z,12.16
2018-11-02T06:32:30.868Z,12.42
2018-11-02T06:34:59.132Z,12.40
2018-11-02T06:37:27.585Z,12.67
2018-11-02T06:39:55.945Z,12.84
2018-11-02T06:42:24.438Z,12.76
2018-11-02T06:44:52.882Z,12.78
2018-11-02T06:47:21.114Z,13.24
2018-11-02T06:49:49.450Z,13.34
2018-11-02T06:52:17.804Z,12.76
2018-11-02T06:54:46.151Z,13.49
2018-11-02T06:57:14.506Z,13.46
2018-11-02T06:59:42.993Z,13.92
2018-11-02T07:02:11.180Z,13.97
2018-11-02T07:04:39.793Z,14.01
2018-11-02T07:07:08.133Z,13.72
2018-11-02T07:09:36.417Z,14.25
2018-11-02T07:12:05.268Z,14.31
2018-11-02T07:14:33.561Z,14.58
2018-11-02T07:17:01.961Z,14.51
2018-11-02T07:19:30.315Z,14.54
2018-11-02T07:21:58.927Z,14.40
2018-11-02T07:24:27.388Z,14.71
2018-11-02T07:26:55.931Z,14.67
2018-11-02T07:29:24.983Z,14.63
2018-11-02T07:31:55.245Z,14.58
2018-11-02T07:34:23.941Z,14.52
2018-11-02T07:36:52.760Z,14.74
2018-11-02T07:39:21.177Z,14.85
2018-11-02T07:41:50.555Z,14.92
2018-11-02T07:44:18.880Z,15.02
2018-11-02T07:46:47.258Z,14.64
2018-11-02T07:49:19.131Z,14.93
2018-11-02T07:51:47.505Z,14.89
2018-11-02T07:54:15.889Z,15.70
2018-11-02T07:56:44.344Z,15.87
2018-11-02T07:59:13.027Z,15.90
2018-11-02T08:01:42.247Z,16.52
2018-11-02T08:04:10.891Z,16.11
2018-11-02T08:06:39.283Z,16.71
2018-11-02T08:09:10.281Z,16.48
2018-11-02T08:11:38.804Z,16.38
2018-11-02T08:14:07.314Z,15.97
2018-11-02T08:16:35.817Z,15.99
2018-11-02T08:19:04.226Z,16.43
2018-11-02T08:21:32.499Z,16.76
2018-11-02T08:24:00.869Z,16.31
2018-11-02T08:26:29.266Z,16.39
2018-11-02T08:28:57.629Z,16.00
2018-11-02T08:31:26.114Z,16.28
2018-11-02T08:33:54.609Z,17.11
2018-11-02T08:36:22.957Z,16.37
2018-11-02T08:38:51.312Z,17.33
2018-11-02T08:41:19.713Z,17.73
2018-11-02T08:43:48.274Z,18.26
2018-11-02T08:46:16.787Z,17.77
2018-11-02T08:48:45.173Z,18.14
2018-11-02T08:51:13.481Z,18.33
2018-11-02T08:53:41.810Z,18.47
2018-11-02T08:56:10.221Z,18.07
2018-11-02T08:58:38.690Z,18.41
2018-11-02T09:01:06.914Z,18.97
2018-11-02T09:03:35.230Z,18.68
2018-11-02T09:06:03.560Z,18.73
2018-11-02T09:08:31.923Z,18.69
2018-11-02T09:11:00.284Z,18.91
2018-11-02T09:13:28.765Z,19.03
2018-11-02T09:15:57.113Z,19.06
2018-11-02T09:18:25.590Z,19.05
2018-11-02T09:20:54.136Z,19.29
2018-11-02T09:23:22.864Z,19.60
2018-11-02T09:25:51.232Z,19.21
2018-11-02T09:28:19.723Z,19.44
2018-11-02T09:30:48.346Z,19.49
2018-11-02T09:33:16.815Z,19.63
2018-11-02T09:35:45.173Z,19.43
2018-11-02T09:38:13.508Z,20.42
2018-11-02T09:40:41.802Z,20.73
2018-11-02T09:43:10.195Z,20.07
2018-11-02T09:45:38.517Z,20.19
2018-11-02T09:48:07.060Z,20.71
2018-11-02T09:50:35.417Z,20.80
2018-11-02T09:53:03.859Z,20.18
2018-11-02T09:55:32.188Z,19.91
2018-11-02T09:58:00.492Z,20.32
2018-11-02T10:00:28.855Z,20.57
2018-11-02T10:02:57.269Z,20.10
2018-11-02T10:05:25.634Z,19.82
2018-11-02T10:07:53.950Z,19.76
2018-11-02T10:10:22.301Z,20.24
2018-11-02T10:12:50.609Z,20.48
2018-11-02T10:15:18.941Z,20.35
2018-11-02T10:17:47.261Z,20.48
2018-11-02T10:20:15.619Z,20.37
2018-11-02T10:22:44.146Z,19.49
2018-11-02T10:25:12.613Z,20.65
2018-11-02T10:27:42.221Z,20.84
2018-11-02T10:30:12.250Z,20.77
2018-11-02T10:32:41.654Z,21.22
2018-11-02T10:35:10.156Z,20.48
2018-11-02T10:37:38.866Z,19.33
2018-11-02T10:40:14.390Z,19.75
2018-11-02T10:42:43.922Z,19.73
2018-11-02T10:45:12.290Z,18.82
2018-11-02T10:47:41.105Z,18.04
2018-11-02T10:50:09.499Z,19.28
2018-11-02T10:52:37.878Z,18.66
2018-11-02T10:55:06.284Z,18.57
2018-11-02T10:57:34.593Z,18.85
2018-11-02T11:00:03.020Z,18.44
2018-11-02T11:02:37.458Z,17.95
2018-11-02T11:05:07.279Z,18.68
2018-11-02T11:07:35.603Z,19.20
2018-11-02T11:10:04.573Z,19.25
2018-11-02T11:12:33.080Z,19.43
2018-11-02T11:15:01.378Z,19.13
2018-11-02T11:17:29.728Z,18.81
2018-11-02T11:19:58.178Z,18.14
2018-11-02T11:22:26.507Z,18.90
2018-11-02T11:24:54.870Z,19.12
2018-11-02T11:27:23.360Z,19.15
2018-11-02T11:29:51.770Z,19.59
2018-11-02T11:32:20.449Z,19.83
2018-11-02T11:34:50.771Z,19.72
2018-11-02T11:37:19.062Z,20.51
2018-11-02T11:39:47.511Z,20.20
2018-11-02T11:42:15.835Z,19.73
2018-11-02T11:44:44.281Z,20.04
2018-11-02T11:47:12.629Z,20.00
2018-11-02T11:49:41.006Z,20.68
2018-11-02T11:52:09.299Z,21.20
2018-11-02T11:54:37.921Z,21.33
2018-11-02T11:57:06.911Z,21.67
2018-11-02T11:59:35.243Z,21.33
2018-11-02T12:02:03.605Z,21.24
2018-11-02T12:04:32.021Z,21.26
2018-11-02T12:07:00.273Z,21.34
2018-11-02T12:09:28.627Z,20.87
2018-11-02T12:11:56.936Z,20.74
2018-11-02T12:14:25.282Z,20.83
2018-11-02T12:16:53.773Z,21.27
2018-11-02T12:19:22.083Z,20.35
2018-11-02T12:21:50.745Z,19.96
2018-11-02T12:24:19.193Z,20.46
2018-11-02T12:26:47.742Z,20.41
2018-11-02T12:29:16.081Z,20.82
2018-11-02T12:31:44.430Z,21.23
2018-11-02T12:34:13.605Z,21.29
2018-11-02T12:36:41.925Z,21.31
2018-11-02T12:39:10.406Z,21.05
2018-11-02T12:41:39.083Z,21.22
2018-11-02T12:44:27.627Z,21.25
2018-11-02T12:46:57.503Z,21.19
2018-11-02T12:49:26.257Z,21.32
2018-11-02T12:51:54.225Z,20.99
2018-11-02T12:54:22.663Z,21.06
2018-11-02T12:56:50.963Z,20.39
2018-11-02T12:59:19.257Z,20.18
2018-11-02T13:01:47.594Z,19.76
2018-11-02T13:04:15.928Z,20.13
2018-11-02T13:06:44.563Z,19.10
2018-11-02T13:09:12.902Z,18.97
2018-11-02T13:11:41.247Z,19.42
2018-11-02T13:14:09.684Z,19.33
2018-11-02T13:16:38.062Z,19.54
2018-11-02T13:19:06.680Z,19.13
2018-11-02T13:21:35.022Z,17.96
2018-11-02T13:24:03.333Z,19.10
2018-11-02T13:26:31.690Z,19.09
2018-11-02T13:29:00.012Z,18.42
2018-11-02T13:31:28.523Z,18.31
2018-11-02T13:33:56.669Z,18.21
2018-11-02T13:36:25.047Z,19.62
2018-11-02T13:38:53.354Z,18.66
2018-11-02T13:41:21.686Z,19.04
2018-11-02T13:43:50.147Z,19.40
2018-11-02T13:46:18.324Z,18.57
2018-11-02T13:48:46.794Z,19.09
2018-11-02T13:51:15.208Z,19.96
2018-11-02T13:53:43.557Z,20.02
2018-11-02T13:56:11.898Z,20.22
2018-11-02T13:58:40.214Z,19.95
2018-11-02T14:01:08.564Z,19.43
2018-11-02T14:03:36.979Z,19.22
2018-11-02T14:06:05.372Z,19.88
2018-11-02T14:08:33.725Z,19.97
2018-11-02T14:11:02.041Z,20.06
2018-11-02T14:13:30.388Z,20.15
2018-11-02T14:15:58.717Z,20.44
2018-11-02T14:18:27.068Z,20.50
2018-11-02T14:20:55.385Z,20.60
2018-11-02T14:23:23.828Z,19.93
2018-11-02T14:25:52.389Z,20.21
2018-11-02T14:28:20.740Z,20.54
2018-11-02T14:30:49.172Z,20.52
2018-11-02T14:33:17.481Z,20.54
2018-11-02T14:35:45.803Z,20.55
2018-11-02T14:38:14.137Z,20.76
2018-11-02T14:40:42.498Z,20.70
2018-11-02T14:43:10.858Z,20.65
2018-11-02T14:45:39.225Z,20.55
2018-11-02T14:48:07.580Z,20.64
2018-11-02T14:50:35.885Z,20.47
2018-11-02T14:53:04.848Z,20.26
2018-11-02T14:55:33.216Z,20.26
2018-11-02T14:58:01.594Z,20.41
2018-11-02T15:00:29.935Z,20.42
2018-11-02T15:02:58.308Z,20.50
2018-11-02T15:05:26.649Z,20.32
2018-11-02T15:07:54.969Z,20.19
2018-11-02T15:10:24.032Z,20.31
2018-11-02T15:12:52.455Z,20.32
2018-11-02T15:15:20.819Z,20.41
2018-11-02T15:17:49.168Z,20.32
2018-11-02T15:20:17.497Z,20.26
2018-11-02T15:22:45.818Z,19.69
2018-11-02T15:25:14.204Z,20.09
2018-11-02T15:27:42.559Z,19.35
2018-11-02T15:30:12.706Z,19.21
2018-11-02T15:32:41.587Z,19.11
2018-11-02T15:35:10.666Z,18.78
2018-11-02T15:37:38.996Z,19.07
2018-11-02T15:40:09.822Z,19.43
2018-11-02T15:42:38.175Z,19.38
2018-11-02T15:45:08.880Z,18.34
2018-11-02T15:47:37.304Z,18.64
2018-11-02T15:50:06.565Z,18.11
2018-11-02T15:52:35.053Z,18.65
2018-11-02T15:55:03.352Z,18.61
2018-11-02T15:57:31.801Z,18.56
2018-11-02T16:00:00.132Z,18.26
2018-11-02T16:02:28.478Z,18.53
2018-11-02T16:04:56.827Z,18.48
2018-11-02T16:07:25.189Z,18.81
2018-11-02T16:09:53.502Z,18.72
2018-11-02T16:12:21.819Z,18.84
2018-11-02T16:14:50.188Z,18.81
2018-11-02T16:17:18.498Z,18.71
2018-11-02T16:19:46.865Z,18.72
2018-11-02T16:22:15.140Z,18.57
2018-11-02T16:24:43.464Z,18.42
2018-11-02T16:27:11.789Z,18.35
2018-11-02T16:29:40.843Z,18.37
2018-11-02T16:32:09.274Z,18.23
2018-11-02T16:34:37.557Z,18.43
2018-11-02T16:37:06.118Z,18.23
2018-11-02T16:39:34.485Z,18.22
2018-11-02T16:42:02.843Z,18.28
2018-11-02T16:44:31.212Z,18.36
2018-11-02T16:46:59.534Z,18.22
2018-11-02T16:49:27.897Z,18.16
2018-11-02T16:51:56.473Z,18.05
2018-11-02T16:54:24.927Z,18.11
2018-11-02T16:56:53.237Z,18.14
2018-11-02T16:59:21.636Z,18.06
2018-11-02T17:01:49.981Z,18.05
2018-11-02T17:04:18.288Z,18.11
2018-11-02T17:06:46.618Z,18.23
2018-11-02T17:09:15.088Z,18.19
2018-11-02T17:11:43.549Z,17.97
2018-11-02T17:14:11.799Z,18.07
2018-11-02T17:16:40.139Z,18.15
2018-11-02T17:19:08.494Z,18.15
2018-11-02T17:21:36.883Z,17.96
2018-11-02T17:24:05.741Z,18.07
2018-11-02T17:26:34.059Z,18.25
2018-11-02T17:29:02.386Z,18.37
2018-11-02T17:31:30.717Z,18.23
2018-11-02T17:33:59.014Z,17.92
2018-11-02T17:36:27.404Z,18.05
2018-11-02T17:38:55.677Z,17.91
2018-11-02T17:41:23.988Z,17.96
2018-11-02T17:43:53.019Z,17.84
2018-11-02T17:46:21.496Z,17.77
2018-11-02T17:48:49.863Z,17.82
2018-11-02T17:51:18.201Z,17.98
2018-11-02T17:53:46.555Z,17.94
2018-11-02T17:56:14.966Z,17.92
2018-11-02T17:58:43.326Z,17.90
2018-11-02T18:01:11.651Z,17.94
2018-11-02T18:03:39.952Z,17.89
2018-11-02T18:06:08.340Z,17.75
2018-11-02T18:08:36.926Z,17.52
2018-11-02T18:11:05.481Z,17.23
2018-11-02T18:13:33.806Z,17.52
2018-11-02T18:16:02.150Z,17.56
2018-11-02T18:18:30.619Z,17.72
2018-11-02T18:20:58.957Z,17.78
2018-11-02T18:23:27.308Z,17.57
2018-11-02T18:25:55.584Z,17.62
2018-11-02T18:28:23.931Z,17.35
2018-11-02T18:30:52.248Z,17.48
2018-11-02T18:33:20.549Z,17.43
2018-11-02T18:35:48.959Z,17.50
2018-11-02T18:38:17.281Z,17.45
2018-11-02T18:40:45.619Z,17.72
2018-11-02T18:43:14.019Z,17.55
2018-11-02T18:45:42.364Z,17.63
2018-11-02T18:48:10.933Z,17.67
2018-11-02T18:50:39.175Z,17.70
2018-11-02T18:53:07.449Z,17.76
2018-11-02T18:55:35.753Z,17.89
2018-11-02T18:58:04.144Z,17.77
2018-11-02T19:00:32.465Z,17.72
2018-11-02T19:03:00.820Z,17.82
2018-11-02T19:05:29.163Z,17.73
2018-11-02T19:07:57.454Z,17.92
2018-11-02T19:10:25.801Z,17.68
2018-11-02T19:12:54.212Z,17.98
2018-11-02T19:15:22.537Z,17.87
2018-11-02T19:17:50.890Z,17.76
2018-11-02T19:20:19.336Z,17.80
2018-11-02T19:22:47.604Z,17.30
2018-11-02T19:25:16.664Z,16.94
2018-11-02T19:27:45.555Z,17.26
2018-11-02T19:30:14.759Z,17.20
2018-11-02T19:32:43.235Z,17.75
2018-11-02T19:35:12.786Z,17.80
2018-11-02T19:37:41.006Z,17.23
2018-11-02T19:40:11.608Z,17.19
2018-11-02T19:42:39.937Z,17.48
2018-11-02T19:45:09.110Z,17.48
2018-11-02T19:47:42.816Z,17.51
2018-11-02T19:50:13.142Z,17.51
2018-11-02T19:52:41.700Z,17.50
2018-11-02T19:55:11.224Z,17.56
2018-11-02T19:57:39.841Z,17.54
2018-11-02T20:00:11.110Z,17.52
2018-11-02T20:02:39.985Z,17.45
2018-11-02T20:05:10.037Z,17.23
2018-11-02T20:07:38.877Z,17.22
2018-11-02T20:10:08.075Z,17.15
2018-11-02T20:12:36.374Z,17.27
2018-11-02T20:15:12.404Z,17.02
2018-11-02T20:17:41.032Z,17.20
2018-11-02T20:20:11.196Z,17.15
2018-11-02T20:22:39.605Z,16.96
2018-11-02T20:25:09.552Z,16.99
2018-11-02T20:27:37.945Z,17.02
2018-11-02T20:30:08.297Z,17.15
2018-11-02T20:32:37.278Z,16.88
2018-11-02T20:35:06.276Z,16.78
2018-11-02T20:37:34.614Z,16.64
2018-11-02T20:40:02.950Z,16.55
2018-11-02T20:42:31.285Z,16.43
2018-11-02T20:44:59.646Z,16.42
2018-11-02T20:47:31.194Z,16.46
2018-11-02T20:49:59.730Z,16.35
2018-11-02T20:52:28.550Z,16.33
2018-11-02T20:54:56.865Z,16.44
2018-11-02T20:57:25.221Z,15.97
2018-11-02T20:59:53.554Z,16.17
2018-11-02T21:02:21.908Z,15.97
2018-11-02T21:04:50.283Z,15.63
2018-11-02T21:07:18.794Z,15.81
2018-11-02T21:09:47.181Z,15.90
2018-11-02T21:12:15.389Z,15.87
2018-11-02T21:14:43.753Z,15.65
2018-11-02T21:17:12.159Z,15.65
2018-11-02T21:19:40.467Z,15.69
2018-11-02T21:22:11.048Z,15.69
2018-11-02T21:24:39.277Z,15.51
2018-11-02T21:27:08.061Z,15.57
2018-11-02T21:29:36.402Z,15.57
2018-11-02T21:32:04.756Z,15.48
2018-11-02T21:34:33.069Z,15.31
2018-11-02T21:37:01.648Z,15.39
2018-11-02T21:39:30.076Z,15.10
2018-11-02T21:41:58.406Z,15.23
2018-11-02T21:44:26.738Z,15.15
2018-11-02T21:46:55.324Z,15.01
2018-11-02T21:49:23.678Z,15.21
2018-11-02T21:51:52.018Z,15.17
2018-11-02T21:54:20.473Z,15.23
2018-11-02T21:56:48.906Z,15.21
2018-11-02T21:59:17.292Z,15.27
2018-11-02T22:01:45.628Z,15.38
2018-11-02T22:04:13.970Z,15.43
2018-11-02T22:06:42.311Z,15.36
2018-11-02T22:09:11.204Z,15.13
2018-11-02T22:11:40.114Z,14.88
2018-11-02T22:14:08.737Z,15.18
2018-11-02T22:16:37.121Z,15.01
2018-11-02T22:19:05.704Z,15.21
2018-11-02T22:21:33.955Z,15.19
2018-11-02T22:24:02.314Z,15.09
2018-11-02T22:26:30.815Z,15.04
2018-11-02T22:28:59.219Z,14.97
2018-11-02T22:31:27.530Z,14.85
2018-11-02T22:33:55.987Z,14.76
2018-11-02T22:36:24.293Z,15.02
2018-11-02T22:38:52.743Z,14.98
2018-11-02T22:41:21.039Z,15.06
2018-11-02T22:43:49.381Z,15.17
2018-11-02T22:46:17.743Z,15.25
2018-11-02T22:48:46.188Z,15.17
2018-11-02T22:51:14.540Z,15.10
2018-11-02T22:53:42.904Z,15.10
2018-11-02T22:56:11.290Z,14.99
2018-11-02T22:58:39.645Z,15.09
2018-11-02T23:01:13.412Z,15.10
2018-11-02T23:03:41.990Z,15.25
2018-11-02T23:06:10.341Z,15.26
2018-11-02T23:08:38.685Z,15.38
2018-11-02T23:11:07.013Z,15.25
2018-11-02T23:13:35.356Z,15.35
2018-11-02T23:16:03.732Z,15.31
2018-11-02T23:18:32.119Z,15.53
2018-11-02T23:21:00.426Z,15.56
2018-11-02T23:23:29.497Z,15.50
2018-11-02T23:25:57.826Z,15.55
2018-11-02T23:28:26.373Z,15.69
2018-11-02T23:30:54.750Z,15.56
2018-11-02T23:33:23.160Z,15.48
2018-11-02T23:35:51.528Z,15.62
2018-11-02T23:38:19.924Z,15.41
2018-11-02T23:40:48.340Z,15.75
2018-11-02T23:43:16.601Z,15.57
2018-11-02T23:45:44.988Z,15.71
2018-11-02T23:48:17.963Z,15.67
2018-11-02T23:50:47.560Z,15.68
2018-11-02T23:53:15.874Z,15.51
2018-11-02T23:55:44.521Z,15.77
2018-11-02T23:58:12.913Z,15.60
